Time;durP1;ratioP1;P1;durP2;ratioP2;P2;SDS_P1;SDS_P2;PMS_P1;PMS_P2;Temp;Humidity;BMP_temperature;BMP_pressure;BME280_temperature;BME280_humidity;BME280_pressure;Samples;Min_cycle;Max_cycle;Signal;HPM_P1;HPM_P2
2023/01/27 00:00:05;;;;;;;13.07;8.93;;;7.60;65.20;;;;;;6276909;22;20007;-81
2023/01/27 00:02:31;;;;;;;12.48;7.85;;;7.50;65.10;;;;;;6276926;22;20311;-80
2023/01/27 00:04:57;;;;;;;13.70;8.30;;;7.50;65.10;;;;;;6275319;22;20034;-81
2023/01/27 00:07:23;;;;;;;12.40;8.18;;;7.40;65.20;;;;;;6277120;22;20438;-81
2023/01/27 00:09:49;;;;;;;13.68;8.25;;;7.40;65.40;;;;;;6276541;22;20026;-81
2023/01/27 00:15:06;;;;;;;14.15;8.20;;;7.30;65.40;;;;;;6276972;22;20472;-81
2023/01/27 00:17:33;;;;;;;13.95;8.52;;;7.20;66.00;;;;;;6277135;22;20004;-81
2023/01/27 00:19:59;;;;;;;10.93;7.07;;;7.20;65.70;;;;;;6277320;22;20499;-81
2023/01/27 00:25:09;;;;;;;11.10;7.43;;;7.20;65.80;;;;;;6277005;22;20464;-77
2023/01/27 00:27:34;;;;;;;13.15;8.20;;;7.10;65.50;;;;;;6276829;22;20071;-80
2023/01/27 00:30:03;;;;;;;11.95;7.25;;;7.20;65.70;;;;;;6277334;22;20007;-80
2023/01/27 00:35:15;;;;;;;11.70;7.35;;;7.20;65.70;;;;;;6276871;22;20448;-80
2023/01/27 00:37:41;;;;;;;11.15;7.53;;;7.20;65.40;;;;;;6276954;22;20031;-82
2023/01/27 00:40:08;;;;;;;11.60;7.03;;;7.20;65.50;;;;;;6276787;22;20011;-81
2023/01/27 00:42:34;;;;;;;13.43;8.02;;;7.10;65.80;;;;;;6277037;22;20000;-81
2023/01/27 00:47:43;;;;;;;14.15;7.60;;;7.20;66.40;;;;;;6277076;22;20018;-81
2023/01/27 00:50:09;;;;;;;10.40;7.18;;;7.20;65.60;;;;;;6276720;22;20325;-81
2023/01/27 00:52:35;;;;;;;12.98;7.88;;;7.10;65.80;;;;;;6277037;22;20006;-80
2023/01/27 00:55:01;;;;;;;12.80;7.43;;;7.10;65.50;;;;;;6276786;22;20268;-81
2023/01/27 00:57:26;;;;;;;11.20;7.25;;;7.10;65.50;;;;;;6276735;22;20433;-80
2023/01/27 00:59:52;;;;;;;11.50;7.38;;;7.20;66.00;;;;;;6276990;22;20012;-81
2023/01/27 01:02:18;;;;;;;10.85;6.78;;;7.10;65.50;;;;;;6277083;22;20004;-78
2023/01/27 01:04:43;;;;;;;11.80;7.07;;;7.10;65.80;;;;;;6276809;22;20311;-80
2023/01/27 01:07:09;;;;;;;13.57;7.18;;;7.10;65.80;;;;;;6276515;22;20007;-81
2023/01/27 01:09:35;;;;;;;13.35;6.65;;;7.10;65.80;;;;;;6276581;22;20111;-80
2023/01/27 01:12:00;;;;;;;11.20;7.45;;;7.10;65.70;;;;;;6276832;22;19996;-81
2023/01/27 01:14:26;;;;;;;11.38;6.80;;;7.10;65.80;;;;;;6276721;22;20010;-79
2023/01/27 01:16:52;;;;;;;12.00;7.40;;;7.10;66.00;;;;;;6276758;22;19999;-80
2023/01/27 01:19:17;;;;;;;11.00;7.20;;;7.10;65.90;;;;;;6275844;22;20049;-79
2023/01/27 01:21:43;;;;;;;13.50;7.97;;;7.10;66.00;;;;;;6278628;22;19999;-81
2023/01/27 01:24:09;;;;;;;10.27;7.00;;;7.10;65.90;;;;;;6276272;22;20085;-80
2023/01/27 01:26:34;;;;;;;12.02;7.00;;;7.00;65.80;;;;;;6276131;22;20476;-80
2023/01/27 01:29:00;;;;;;;10.73;7.25;;;6.90;65.80;;;;;;6275980;22;20039;-80
2023/01/27 01:31:26;;;;;;;13.23;7.97;;;6.90;65.80;;;;;;6276061;22;20007;-80
2023/01/27 01:33:51;;;;;;;11.98;6.93;;;6.90;66.20;;;;;;6276826;22;20007;-80
2023/01/27 01:36:19;;;;;;;11.00;6.93;;;6.80;66.00;;;;;;6277869;22;20000;-80
2023/01/27 01:38:45;;;;;;;9.80;6.57;;;6.80;66.00;;;;;;6278711;22;20079;-80
2023/01/27 01:41:14;;;;;;;10.32;7.13;;;6.70;66.10;;;;;;6277526;22;19999;-80
2023/01/27 01:43:40;;;;;;;12.18;7.00;;;6.80;66.20;;;;;;6276613;22;20011;-80
2023/01/27 01:46:09;;;;;;;11.27;7.30;;;6.80;66.50;;;;;;6276222;22;20086;-80
2023/01/27 01:48:36;;;;;;;11.05;7.70;;;6.80;66.00;;;;;;6276765;22;20011;-80
2023/01/27 01:51:09;;;;;;;13.73;7.35;;;6.70;66.10;;;;;;6276392;22;20122;-80
2023/01/27 01:53:59;;;;;;;11.95;7.10;;;6.80;66.20;;;;;;6276026;22;20016;-80
2023/01/27 01:56:34;;;;;;;10.32;6.40;;;6.80;66.10;;;;;;6276399;22;20473;-79
2023/01/27 01:59:06;;;;;;;10.20;6.88;;;6.80;68.30;;;;;;6276923;22;20000;-79
2023/01/27 02:01:32;;;;;;;10.32;6.65;;;6.80;66.20;;;;;;6276805;22;20004;-80
2023/01/27 07:13:23;;;;;;;19.15;7.40;;;6.10;71.50;;;;;;6304437;22;20467;-78
2023/01/27 07:15:54;;;;;;;12.20;7.03;;;6.20;68.80;;;;;;6277468;22;20016;-79
2023/01/27 07:18:19;;;;;;;14.88;8.35;;;6.40;68.40;;;;;;6277656;22;20315;-75
2023/01/27 07:20:45;;;;;;;13.95;6.93;;;6.40;68.10;;;;;;6277093;22;20025;-75
2023/01/27 07:23:12;;;;;;;13.77;7.22;;;6.60;68.10;;;;;;6276541;22;20004;-75
2023/01/27 07:25:38;;;;;;;13.45;7.47;;;6.60;67.40;;;;;;6277547;22;20042;-73
2023/01/27 07:28:04;;;;;;;12.18;6.78;;;6.60;67.10;;;;;;6277467;22;19999;-76
2023/01/27 07:30:32;;;;;;;15.27;7.10;;;6.70;67.30;;;;;;6277771;22;20003;-74
2023/01/27 07:33:09;;;;;;;14.65;7.43;;;6.80;67.00;;;;;;6277492;22;20079;-76
2023/01/27 07:35:36;;;;;;;10.90;6.53;;;6.90;66.70;;;;;;6276626;22;20282;-74
2023/01/27 07:38:01;;;;;;;11.70;6.22;;;6.90;65.90;;;;;;6276881;22;20062;-77
2023/01/27 07:40:27;;;;;;;11.23;6.38;;;7.00;66.80;;;;;;6276839;22;20004;-78
2023/01/27 07:42:56;;;;;;;14.00;7.90;;;7.00;65.80;;;;;;6277014;22;20413;-78
2023/01/27 07:45:22;;;;;;;9.00;5.90;;;7.00;66.00;;;;;;6277208;22;20395;-78
2023/01/27 07:47:47;;;;;;;11.55;6.00;;;7.00;65.50;;;;;;6277371;22;19996;-78
2023/01/27 07:50:13;;;;;;;14.50;7.20;;;7.10;65.90;;;;;;6276991;22;20445;-79
2023/01/27 07:52:39;;;;;;;11.35;6.82;;;7.10;65.60;;;;;;6276877;22;20107;-78
2023/01/27 07:55:05;;;;;;;15.25;6.65;;;7.10;65.50;;;;;;6276787;22;20300;-78
2023/01/27 07:57:30;;;;;;;12.05;6.25;;;7.20;65.70;;;;;;6276432;22;20017;-80
2023/01/27 07:59:56;;;;;;;12.65;6.78;;;7.20;65.20;;;;;;6277194;22;20034;-79
2023/01/27 08:02:23;;;;;;;11.05;7.07;;;7.20;65.10;;;;;;6277021;22;20334;-78
2023/01/27 08:04:49;;;;;;;15.00;7.05;;;7.20;65.00;;;;;;6276786;22;20011;-78
2023/01/27 08:07:15;;;;;;;15.68;7.05;;;7.10;64.80;;;;;;6277244;22;20003;-77
2023/01/27 08:09:41;;;;;;;13.25;7.20;;;7.20;65.60;;;;;;6276751;22;19996;-78
2023/01/27 08:12:06;;;;;;;11.13;6.63;;;7.30;65.30;;;;;;6276819;22;20038;-78
2023/01/27 08:14:32;;;;;;;11.95;7.03;;;7.30;64.80;;;;;;6294111;22;20441;-79
2023/01/27 08:16:58;;;;;;;11.43;6.90;;;7.40;64.60;;;;;;6307449;22;20043;-79
2023/01/27 08:19:23;;;;;;;12.20;7.18;;;7.40;64.20;;;;;;6308274;22;19999;-78
2023/01/27 08:21:49;;;;;;;14.57;7.00;;;7.30;64.00;;;;;;6304812;22;20003;-79
2023/01/27 08:24:15;;;;;;;13.82;7.28;;;7.30;64.30;;;;;;6305140;22;20022;-79
2023/01/27 08:26:40;;;;;;;11.63;7.00;;;7.40;65.10;;;;;;6301845;22;20030;-79
2023/01/27 08:29:06;;;;;;;12.82;6.25;;;7.40;64.50;;;;;;6278190;22;20359;-78
2023/01/27 08:31:32;;;;;;;19.58;6.47;;;7.50;64.30;;;;;;6304351;22;19999;-80
2023/01/27 08:33:57;;;;;;;15.63;6.97;;;7.50;64.20;;;;;;6306820;22;20002;-79
2023/01/27 08:36:23;;;;;;;40.40;10.10;;;7.60;64.20;;;;;;6306477;22;20367;-77
2023/01/27 08:38:50;;;;;;;20.30;7.65;;;7.70;63.90;;;;;;6306803;22;20078;-78
2023/01/27 08:41:23;;;;;;;13.98;7.40;;;7.70;63.60;;;;;;6306801;22;20096;-78
2023/01/27 08:43:49;;;;;;;20.95;7.53;;;7.60;63.40;;;;;;6278030;22;20019;-77
2023/01/27 08:46:16;;;;;;;11.18;6.95;;;7.60;63.60;;;;;;6307356;22;19999;-77
2023/01/27 08:48:42;;;;;;;16.55;6.90;;;7.60;63.70;;;;;;6318277;22;19996;-78
2023/01/27 08:51:09;;;;;;;14.32;6.82;;;7.70;63.90;;;;;;6325407;22;20090;-79
2023/01/27 08:53:35;;;;;;;13.88;7.07;;;7.70;63.60;;;;;;6324379;22;20014;-78
2023/01/27 08:56:05;;;;;;;20.00;8.13;;;7.80;63.60;;;;;;6333516;22;20000;-77
2023/01/27 08:58:32;;;;;;;16.85;6.65;;;7.90;63.80;;;;;;6314053;22;20015;-77
2023/01/27 09:01:02;;;;;;;14.18;7.32;;;8.00;63.50;;;;;;6307409;22;19999;-78
2023/01/27 09:03:29;;;;;;;12.20;6.25;;;8.10;63.40;;;;;;6306670;22;20025;-78
2023/01/27 09:05:55;;;;;;;11.02;6.10;;;8.20;63.50;;;;;;6306813;22;20073;-78
2023/01/27 09:08:21;;;;;;;10.90;6.57;;;8.20;63.10;;;;;;6307026;22;20040;-78
2023/01/27 09:10:47;;;;;;;11.18;6.28;;;8.40;63.30;;;;;;6304841;22;20004;-78
2023/01/27 09:13:13;;;;;;;13.20;6.25;;;8.50;62.90;;;;;;6304484;22;20341;-79
2023/01/27 09:15:39;;;;;;;13.10;6.45;;;8.70;62.60;;;;;;6306316;22;20035;-78
2023/01/27 09:18:05;;;;;;;12.35;6.38;;;8.70;62.30;;;;;;6306144;22;20015;-77
2023/01/27 09:20:33;;;;;;;12.73;6.75;;;8.70;62.40;;;;;;6306837;22;19999;-78
2023/01/27 09:22:58;;;;;;;12.02;6.00;;;8.70;62.20;;;;;;6279332;22;20007;-78
2023/01/27 09:25:24;;;;;;;10.98;5.78;;;8.70;62.30;;;;;;6306715;22;20127;-77
2023/01/27 09:27:54;;;;;;;13.07;6.30;;;8.80;62.60;;;;;;6307199;22;20002;-77
2023/01/27 09:30:20;;;;;;;10.75;6.00;;;8.80;62.40;;;;;;6306507;22;19999;-76
2023/01/27 09:32:46;;;;;;;9.73;5.82;;;8.90;62.40;;;;;;6306259;22;20410;-79
2023/01/27 09:35:12;;;;;;;10.65;6.07;;;8.90;62.10;;;;;;6306808;22;19999;-79
2023/01/27 09:37:49;;;;;;;13.32;5.75;;;8.90;62.30;;;;;;6302123;22;20003;-77
2023/01/27 09:40:30;;;;;;;13.52;5.97;;;8.90;62.30;;;;;;6306019;22;20429;-74
2023/01/27 09:43:14;;;;;;;12.73;6.00;;;9.00;62.40;;;;;;6306300;22;20015;-75
2023/01/27 09:45:51;;;;;;;10.35;6.13;;;9.00;62.30;;;;;;6307057;22;20077;-78
2023/01/27 09:48:40;;;;;;;11.88;6.30;;;9.10;62.30;;;;;;6306337;22;20017;-76
2023/01/27 09:51:47;;;;;;;11.50;6.05;;;9.30;62.30;;;;;;6278046;22;20078;-78
2023/01/27 09:54:24;;;;;;;13.38;6.13;;;9.50;62.10;;;;;;6306476;22;20003;-75
2023/01/27 09:56:59;;;;;;;10.10;5.63;;;9.60;62.10;;;;;;6306149;22;20027;-78
2023/01/27 09:59:30;;;;;;;11.30;6.53;;;10.00;60.70;;;;;;6306406;22;20500;-78
2023/01/27 10:02:03;;;;;;;12.20;7.05;;;10.10;60.10;;;;;;6305746;22;19999;-73
2023/01/27 10:04:51;;;;;;;14.45;5.97;;;10.20;59.70;;;;;;6306531;22;20019;-73
2023/01/27 10:07:46;;;;;;;11.98;6.10;;;10.30;60.00;;;;;;6306178;22;19999;-73
2023/01/27 10:10:52;;;;;;;10.60;5.80;;;10.40;60.30;;;;;;6307349;22;20375;-75
2023/01/27 10:13:34;;;;;;;16.17;6.57;;;10.40;59.90;;;;;;6306385;22;20416;-74
2023/01/27 10:16:25;;;;;;;12.48;6.38;;;10.40;59.50;;;;;;6279699;22;20015;-78
2023/01/27 10:18:59;;;;;;;17.08;6.22;;;10.40;59.80;;;;;;6306894;22;20092;-73
2023/01/27 10:21:38;;;;;;;;;;;;;;;;;;;;;
2023/01/27 10:27:31;;;;;;;10.52;5.70;;;10.40;59.10;;;;;;6307440;22;20468;-75
2023/01/27 10:30:35;;;;;;;9.20;5.05;;;10.50;58.70;;;;;;6306880;22;20003;-78
2023/01/27 10:33:26;;;;;;;10.98;5.78;;;10.60;58.90;;;;;;6307076;22;20445;-79
2023/01/27 10:36:28;;;;;;;10.55;5.45;;;10.70;58.30;;;;;;6305353;22;20118;-81
2023/01/27 10:59:59;;;;;;;11.93;6.53;;;10.90;59.80;;;;;;5100087;22;24194916;-80
2023/01/27 11:03:29;;;;;;;13.20;6.03;;;11.30;56.60;;;;;;6138335;23;20016;-75
2023/01/27 11:09:43;;;;;;;8.73;5.68;;;11.70;55.70;;;;;;5995257;23;20091;-79
2023/01/27 11:52:29;;;;;;;10.00;5.28;;;12.00;57.70;;;;;;6026090;22;6003008;-76
2023/01/27 12:03:07;;;;;;;10.70;5.78;;;12.40;52.80;;;;;;6251513;23;20039;-77
2023/01/27 12:05:47;;;;;;;8.55;5.00;;;12.50;53.20;;;;;;6251929;23;20031;-77
2023/01/27 12:09:22;;;;;;;;;;;;;;;;;;;;;
2023/01/27 12:12:21;;;;;;;;;;;12.50;53.40;;;;;;6242028;22;20091;-77
2023/01/27 12:15:32;;;;;;;9.95;4.82;;;12.80;52.30;;;;;;6225941;23;19899;-77
2023/01/27 12:18:12;;;;;;;8.93;5.63;;;13.00;52.90;;;;;;6251890;23;20015;-75
2023/01/27 12:20:47;;;;;;;7.50;4.00;;;12.90;52.60;;;;;;6224490;23;20008;-78
2023/01/27 12:23:37;;;;;;;9.80;4.90;;;12.90;52.40;;;;;;6251822;23;20461;-81
2023/01/27 12:26:11;;;;;;;8.90;4.95;;;12.80;52.10;;;;;;6286606;22;20003;-74
2023/01/27 12:28:53;;;;;;;10.45;4.95;;;12.80;52.40;;;;;;6315940;22;20019;-76
2023/01/27 12:32:06;;;;;;;9.63;4.90;;;12.90;52.70;;;;;;6314909;22;20007;-77
2023/01/27 12:34:58;;;;;;;10.23;5.30;;;12.90;52.60;;;;;;6315702;22;20351;-77
2023/01/27 12:37:35;;;;;;;10.90;5.75;;;13.00;52.90;;;;;;6315670;22;20508;-77
2023/01/27 12:40:26;;;;;;;11.57;4.63;;;13.10;52.60;;;;;;6314157;22;19995;-74
2023/01/27 12:43:10;;;;;;;9.80;5.22;;;13.20;52.10;;;;;;6287453;22;19999;-76
2023/01/27 12:46:03;;;;;;;10.15;6.00;;;13.30;51.90;;;;;;6315109;22;20033;-72
2023/01/27 12:48:35;;;;;;;8.05;4.70;;;13.30;51.90;;;;;;6287792;22;20094;-75
2023/01/27 12:51:40;;;;;;;9.38;5.10;;;13.50;51.70;;;;;;6312545;22;20045;-73
2023/01/27 12:55:02;;;;;;;;;;;;;;;;;;;;;
2023/01/27 12:57:27;;;;;;;11.32;5.00;;;13.60;51.70;;;;;;6303367;22;20332;-75
2023/01/27 13:00:26;;;;;;;;;;;;;;;;;;;;;
2023/01/27 13:03:02;;;;;;;8.35;4.90;;;13.50;51.60;;;;;;6300851;22;20082;-74
2023/01/27 13:05:42;;;;;;;7.75;4.97;;;13.40;52.00;;;;;;6308845;22;20003;-74
2023/01/27 13:08:22;;;;;;;10.88;5.13;;;13.50;52.10;;;;;;6280127;22;19999;-76
2023/01/27 13:11:27;;;;;;;;;;;;;;;;;;;;;
2023/01/27 13:14:15;;;;;;;13.40;4.90;;;13.50;52.40;;;;;;6303986;22;20322;-76
2023/01/27 13:17:32;;;;;;;8.77;5.07;;;13.50;52.00;;;;;;6307815;22;20038;-73
2023/01/27 13:20:03;;;;;;;9.40;5.28;;;13.50;52.10;;;;;;6303088;22;20003;-75
2023/01/27 13:22:54;;;;;;;12.25;5.38;;;13.50;51.80;;;;;;6281128;22;20104;-74
2023/01/27 13:25:51;;;;;;;9.75;5.03;;;13.60;52.00;;;;;;6280633;22;20003;-77
2023/01/27 13:28:54;;;;;;;9.65;5.38;;;13.60;51.90;;;;;;6154318;23;20460;-76
2023/01/27 13:31:42;;;;;;;11.40;5.78;;;13.60;51.90;;;;;;6270121;22;20008;-76
2023/01/27 13:34:38;;;;;;;9.77;5.10;;;13.70;51.80;;;;;;6280808;22;20003;-75
2023/01/27 13:40:39;;;;;;;8.50;5.03;;;13.70;52.10;;;;;;6289143;22;20011;-75
2023/01/27 13:43:52;;;;;;;8.30;5.60;;;13.60;52.00;;;;;;6296681;22;19998;-72
2023/01/27 13:46:57;;;;;;;9.02;5.25;;;13.50;52.30;;;;;;6263476;22;20003;-74
2023/01/27 13:49:59;;;;;;;8.43;4.95;;;13.30;52.40;;;;;;6280912;22;20037;-75
2023/01/27 13:56:17;;;;;;;11.38;5.63;;;13.20;53.30;;;;;;6291190;22;20318;-76
2023/01/27 13:59:19;;;;;;;8.02;4.57;;;13.10;53.00;;;;;;6280250;22;20344;-76
2023/01/27 14:02:22;;;;;;;9.85;4.80;;;13.10;52.40;;;;;;6307606;22;19991;-76
2023/01/27 14:05:13;;;;;;;11.00;5.07;;;13.10;52.90;;;;;;6280323;22;20006;-76
2023/01/27 14:07:59;;;;;;;11.57;4.88;;;13.10;52.90;;;;;;6306957;22;20014;-75
2023/01/27 14:10:54;;;;;;;8.57;4.75;;;12.90;52.90;;;;;;6280349;22;20015;-75
2023/01/27 14:13:45;;;;;;;10.30;5.78;;;12.90;53.10;;;;;;6280519;22;20420;-76
2023/01/27 14:17:06;;;;;;;9.45;5.03;;;12.80;53.20;;;;;;6307982;22;19996;-75
2023/01/27 14:19:59;;;;;;;7.93;4.88;;;12.70;53.20;;;;;;6307284;22;20003;-75
2023/01/27 14:23:10;;;;;;;8.02;4.20;;;12.60;53.20;;;;;;6280178;22;20328;-77
2023/01/27 14:26:00;;;;;;;11.73;5.05;;;12.60;53.30;;;;;;6280423;22;20007;-76
2023/01/27 14:29:06;;;;;;;9.00;4.60;;;12.50;53.20;;;;;;6307888;22;20052;-77
2023/01/27 14:32:00;;;;;;;8.50;5.40;;;12.50;53.40;;;;;;6276657;22;20026;-75
2023/01/27 14:35:05;;;;;;;10.70;5.18;;;12.40;53.60;;;;;;6279642;22;20432;-75
2023/01/27 14:45:23;;;;;;;;;;;;;;;;;;;;;
2023/01/27 14:48:56;;;;;;;;;;;;;;;;;;;;;
2023/01/27 14:52:15;;;;;;;12.23;5.38;;;12.30;54.60;;;;;;6174642;22;20341;-74
2023/01/27 14:55:24;;;;;;;12.80;3.70;;;12.30;54.40;;;;;;6127823;23;20020;-76
2023/01/27 14:58:36;;;;;;;9.38;4.82;;;12.20;54.40;;;;;;6151981;23;20005;-76
2023/01/27 15:04:14;;;;;;;;;;;12.20;54.40;;;;;;6132713;23;20016;-76
2023/01/27 15:07:13;;;;;;;7.68;4.72;;;12.10;54.40;;;;;;6277646;22;19905;-76
2023/01/27 15:09:57;;;;;;;8.07;5.00;;;12.10;54.80;;;;;;6253737;22;20011;-76
2023/01/27 15:13:01;;;;;;;8.50;4.90;;;12.00;54.80;;;;;;6307152;22;20384;-75
2023/01/27 15:19:17;;;;;;;13.02;6.13;;;12.00;55.20;;;;;;6288400;22;20007;-76
2023/01/27 15:32:41;;;;;;;12.45;4.85;;;12.10;55.30;;;;;;6181024;23;20026;-74
2023/01/27 15:38:42;;;;;;;9.45;4.82;;;12.10;55.50;;;;;;6143507;22;20255;-76
2023/01/27 15:48:26;;;;;;;10.32;5.70;;;12.00;55.60;;;;;;6286678;22;20003;-77
2023/01/27 15:51:39;;;;;;;10.93;6.10;;;12.00;55.90;;;;;;6266722;22;20421;-76
2023/01/27 15:54:33;;;;;;;9.98;5.15;;;12.00;56.10;;;;;;6275435;22;20000;-73
2023/01/27 16:04:41;;;;;;;8.63;5.05;;;11.90;56.10;;;;;;6095874;23;20006;-72
2023/01/27 16:07:52;;;;;;;9.18;5.32;;;11.90;56.00;;;;;;6098310;23;20074;-73
2023/01/27 16:10:26;;;;;;;8.23;5.20;;;11.80;56.20;;;;;;6087416;23;20338;-84
2023/01/27 16:13:35;;;;;;;12.15;5.68;;;11.80;56.20;;;;;;6124912;23;20009;-83
2023/01/27 16:16:47;;;;;;;;;;;;;;;;;;;;;
2023/01/27 16:19:16;;;;;;;13.25;7.07;;;11.80;56.40;;;;;;6124469;23;20030;-83
2023/01/27 16:22:10;;;;;;;12.18;6.63;;;11.80;56.70;;;;;;6225182;22;19992;-84
2023/01/27 16:24:41;;;;;;;11.65;6.10;;;11.80;56.60;;;;;;6303616;22;20080;-83
2023/01/27 16:27:13;;;;;;;12.95;6.00;;;11.80;56.70;;;;;;6304409;22;20015;-81
2023/01/27 16:29:45;;;;;;;9.95;6.03;;;11.80;57.20;;;;;;6287523;22;20061;-84
2023/01/27 16:32:21;;;;;;;10.90;7.10;;;11.80;57.60;;;;;;6279039;22;19999;-80
2023/01/27 16:34:54;;;;;;;11.82;7.03;;;11.80;58.30;;;;;;6278502;22;20333;-81
2023/01/27 16:37:25;;;;;;;10.32;7.25;;;11.80;58.50;;;;;;6279330;22;20045;-87
2023/01/27 16:39:59;;;;;;;13.57;8.38;;;11.80;59.00;;;;;;6280872;22;20060;-88
2023/01/27 16:42:39;;;;;;;15.73;9.98;;;11.80;60.10;;;;;;6291641;22;19999;-88
2023/01/27 16:45:51;;;;;;;15.57;9.95;;;11.80;60.00;;;;;;6287737;22;20073;-88
2023/01/27 16:48:37;;;;;;;18.20;9.38;;;11.80;62.10;;;;;;6274416;22;20007;-90
2023/01/27 16:51:19;;;;;;;12.82;8.75;;;11.80;62.10;;;;;;6300360;22;20085;-88
2023/01/27 16:53:51;;;;;;;12.60;8.90;;;11.80;62.60;;;;;;6321987;22;20399;-90
2023/01/27 16:56:23;;;;;;;13.63;9.85;;;11.90;61.90;;;;;;6323361;22;20006;-89
2023/01/27 16:58:50;;;;;;;13.32;9.15;;;11.90;63.00;;;;;;6319560;22;20003;-89
2023/01/27 17:01:34;;;;;;;16.23;11.70;;;11.90;63.00;;;;;;6313310;22;20056;-89
2023/01/27 17:04:02;;;;;;;16.65;10.57;;;11.90;63.30;;;;;;6311676;22;19999;-85
2023/01/27 17:06:29;;;;;;;15.70;11.23;;;11.90;63.80;;;;;;6314421;22;19995;-88
2023/01/27 17:08:55;;;;;;;15.20;10.73;;;11.90;64.40;;;;;;6315835;22;20003;-88
2023/01/27 17:11:31;;;;;;;14.52;10.15;;;11.90;65.10;;;;;;6313240;22;20010;-89
2023/01/27 17:14:00;;;;;;;15.95;10.38;;;11.90;64.90;;;;;;6312262;22;19992;-90
2023/01/27 17:16:38;;;;;;;13.95;9.68;;;11.80;65.20;;;;;;6311691;22;19999;-90
2023/01/27 17:19:32;;;;;;;16.83;10.55;;;11.90;65.90;;;;;;6310807;22;19999;-87
2023/01/27 17:22:00;;;;;;;17.73;10.82;;;11.90;66.20;;;;;;6292022;22;20003;-83
2023/01/27 17:24:28;;;;;;;15.50;11.27;;;11.90;66.20;;;;;;6309301;22;20428;-86
2023/01/27 17:27:02;;;;;;;21.00;12.18;;;11.80;66.00;;;;;;6310119;22;19999;-87
2023/01/27 17:29:38;;;;;;;17.05;11.52;;;11.80;66.20;;;;;;6308358;22;20011;-83
2023/01/27 17:32:28;;;;;;;16.98;11.20;;;11.80;66.40;;;;;;6307553;22;20002;-83
2023/01/27 17:34:56;;;;;;;17.38;11.35;;;11.80;66.40;;;;;;6308449;22;20011;-84
2023/01/27 17:37:23;;;;;;;17.48;12.05;;;11.70;66.40;;;;;;6308623;22;19999;-84
2023/01/27 17:39:57;;;;;;;21.88;15.23;;;11.70;66.30;;;;;;6310095;22;20010;-82
2023/01/27 17:42:27;;;;;;;19.27;13.48;;;11.70;66.50;;;;;;6284691;22;20345;-81
2023/01/27 17:44:53;;;;;;;17.88;12.65;;;11.70;66.50;;;;;;6310904;22;20345;-83
2023/01/27 17:47:20;;;;;;;18.23;13.57;;;11.60;66.30;;;;;;6312554;22;19999;-77
2023/01/27 17:49:50;;;;;;;18.08;12.50;;;11.60;66.30;;;;;;6319058;22;20071;-82
2023/01/27 17:52:30;;;;;;;21.20;14.48;;;11.50;66.30;;;;;;6311238;22;20017;-81
2023/01/27 17:54:57;;;;;;;16.55;12.70;;;11.50;66.60;;;;;;6308381;22;20033;-80
2023/01/27 18:04:24;;;;;;;;;;;11.40;66.10;;;;;;6159032;23;20459;-84
2023/01/27 18:48:09;;;;;;;16.08;12.13;;;10.60;67.30;;;;;;6184873;23;20351;-82
2023/01/27 18:50:44;;;;;;;14.60;11.15;;;10.50;67.30;;;;;;6156434;23;20061;-81
2023/01/27 18:53:38;;;;;;;17.45;13.07;;;10.50;67.50;;;;;;6158417;23;20051;-77
2023/01/27 19:02:48;;;;;;;16.45;13.10;;;10.40;67.90;;;;;;6143224;23;20016;-82
2023/01/27 19:05:26;;;;;;;;;;;;;;;;;;;;;
2023/01/27 19:08:38;;;;;;;19.80;12.75;;;10.40;68.40;;;;;;6212394;23;19892;-79
2023/01/27 19:12:00;;;;;;;18.17;13.05;;;10.50;68.00;;;;;;6102971;23;20041;-83
2023/01/27 19:14:51;;;;;;;20.48;13.60;;;10.50;68.00;;;;;;6092535;23;20048;-86
2023/01/27 19:18:16;;;;;;;18.02;13.30;;;10.50;67.70;;;;;;6056045;23;20007;-86
2023/01/27 19:21:32;;;;;;;18.30;13.15;;;10.50;68.10;;;;;;6090442;23;20029;-85
2023/01/27 19:27:36;;;;;;;;;;;;;;;;;;;;;
2023/01/27 19:48:08;;;;;;;16.15;10.25;;;10.40;66.80;;;;;;5983341;23;20020;-85
2023/01/27 20:04:27;;;;;;;19.45;11.40;;;10.30;65.60;;;;;;6042545;23;20141;-87
2023/01/27 20:14:17;;;;;;;19.15;13.65;;;10.20;66.20;;;;;;6004211;23;20004;-85
2023/01/27 20:21:34;;;;;;;19.60;15.15;;;10.20;67.40;;;;;;6107913;23;20063;-86
2023/01/27 20:39:32;;;;;;;22.08;15.48;;;10.00;69.20;;;;;;6172301;23;20005;-86
2023/01/27 20:42:40;;;;;;;19.77;11.13;;;10.00;69.40;;;;;;5987886;23;20090;-85
2023/01/27 20:45:06;;;;;;;;;;;9.90;68.60;;;;;;6035544;23;20362;-86
2023/01/27 20:47:32;;;;;;;14.57;8.85;;;9.80;67.50;;;;;;6195460;23;19908;-86
2023/01/27 20:49:58;;;;;;;12.93;8.57;;;9.70;67.70;;;;;;6170838;23;20013;-88
2023/01/27 20:52:24;;;;;;;12.85;8.52;;;9.80;67.50;;;;;;6196911;23;19997;-86
2023/01/27 20:54:50;;;;;;;16.15;8.65;;;9.70;66.90;;;;;;6197070;23;20001;-86
2023/01/27 20:57:19;;;;;;;13.73;8.30;;;9.70;66.80;;;;;;6194992;23;20303;-86
2023/01/27 20:59:45;;;;;;;14.10;9.15;;;9.60;66.60;;;;;;6199062;23;20100;-84
2023/01/27 21:02:11;;;;;;;13.70;9.05;;;9.70;66.80;;;;;;6194296;23;20032;-86
2023/01/27 21:04:37;;;;;;;15.13;9.30;;;9.60;66.60;;;;;;6193850;23;20419;-85
2023/01/27 21:07:02;;;;;;;18.73;11.52;;;9.60;66.60;;;;;;6194366;23;20033;-87
2023/01/27 21:09:31;;;;;;;13.15;9.10;;;9.60;66.50;;;;;;6193276;23;20092;-86
2023/01/27 21:11:58;;;;;;;11.98;8.52;;;9.50;66.30;;;;;;6164893;23;20454;-86
2023/01/27 21:14:24;;;;;;;12.88;8.13;;;9.50;66.70;;;;;;6193027;23;20001;-86
2023/01/27 21:16:52;;;;;;;12.23;8.82;;;9.40;66.50;;;;;;6192651;23;20051;-87
2023/01/27 21:19:20;;;;;;;13.57;9.40;;;9.40;66.60;;;;;;6191097;23;20009;-87
2023/01/27 21:21:46;;;;;;;12.55;9.23;;;9.40;66.70;;;;;;6160908;23;20005;-88
2023/01/27 21:24:12;;;;;;;14.98;9.93;;;9.40;66.80;;;;;;6188103;23;20099;-86
2023/01/27 21:26:58;;;;;;;17.45;9.70;;;9.40;67.20;;;;;;6194281;23;20001;-88
2023/01/27 21:29:33;;;;;;;17.13;9.35;;;9.30;67.90;;;;;;6169664;23;20048;-86
2023/01/27 21:32:01;;;;;;;17.20;10.25;;;9.20;68.50;;;;;;6169746;23;20001;-86
2023/01/27 21:34:30;;;;;;;14.82;10.55;;;9.20;68.60;;;;;;6195837;23;20001;-87
2023/01/27 21:40:57;;;;;;;;;;;;;;;;;;;;;
2023/01/27 21:47:42;;;;;;;16.52;11.65;;;9.20;70.80;;;;;;6211629;23;20047;-86
2023/01/27 21:50:42;;;;;;;22.65;11.45;;;9.10;70.90;;;;;;6201190;23;20039;-86
2023/01/27 22:00:21;;;;;;;16.73;11.20;;;9.20;71.60;;;;;;6100993;23;20057;-84
2023/01/27 22:07:00;;;;;;;17.55;10.50;;;9.20;70.30;;;;;;6069053;23;20049;-85
2023/01/27 22:10:21;;;;;;;15.82;9.07;;;9.10;72.50;;;;;;5959988;23;20055;-86
2023/01/27 22:13:09;;;;;;;16.92;10.27;;;9.10;72.10;;;;;;6040262;23;20522;-86
2023/01/27 22:15:35;;;;;;;16.58;9.80;;;9.00;72.20;;;;;;6038912;23;20003;-82
2023/01/27 22:18:00;;;;;;;18.10;10.60;;;9.00;71.40;;;;;;6036198;23;20014;-80
2023/01/27 22:20:27;;;;;;;20.45;11.30;;;9.00;71.30;;;;;;6111926;23;20005;-79
2023/01/27 22:22:53;;;;;;;14.40;10.55;;;9.10;71.20;;;;;;6185350;23;20005;-80
2023/01/27 22:25:18;;;;;;;15.07;10.30;;;9.10;71.50;;;;;;6185180;23;20381;-81
2023/01/27 22:27:44;;;;;;;13.90;10.00;;;9.00;71.30;;;;;;6159901;23;20016;-80
2023/01/27 22:30:18;;;;;;;19.17;10.68;;;9.00;71.70;;;;;;6186517;23;20083;-81
2023/01/27 22:32:46;;;;;;;20.67;10.80;;;9.00;73.20;;;;;;6185345;23;20000;-81
2023/01/27 22:35:14;;;;;;;19.80;11.68;;;9.10;71.90;;;;;;6158499;23;20001;-82
2023/01/27 22:37:39;;;;;;;14.82;10.10;;;9.00;71.90;;;;;;6185743;23;20085;-80
2023/01/27 22:40:06;;;;;;;14.93;9.80;;;9.00;72.40;;;;;;6185096;23;20026;-80
2023/01/27 22:42:32;;;;;;;14.45;9.43;;;9.00;72.40;;;;;;6184029;23;20004;-80
2023/01/27 22:44:57;;;;;;;14.10;9.80;;;8.90;72.90;;;;;;6182754;23;20017;-81
2023/01/27 22:47:23;;;;;;;16.90;10.00;;;9.00;72.30;;;;;;6183924;23;20001;-79
2023/01/27 22:49:49;;;;;;;14.38;9.45;;;8.90;72.70;;;;;;6184418;23;20391;-79
2023/01/27 22:52:15;;;;;;;16.27;9.73;;;8.80;72.40;;;;;;6184666;23;20075;-81
2023/01/27 22:54:41;;;;;;;15.48;9.70;;;8.90;73.40;;;;;;6184494;23;20008;-78
2023/01/27 22:57:07;;;;;;;16.92;9.65;;;8.80;72.70;;;;;;6184118;23;20012;-80
2023/01/27 22:59:33;;;;;;;16.65;9.77;;;8.90;73.20;;;;;;6184327;23;20009;-79
2023/01/27 23:01:59;;;;;;;13.68;9.65;;;8.80;73.00;;;;;;6185103;23;20056;-78
2023/01/27 23:04:24;;;;;;;16.90;10.27;;;8.90;73.00;;;;;;6185069;23;20494;-79
2023/01/27 23:06:50;;;;;;;14.40;9.30;;;8.90;73.00;;;;;;6185044;23;20001;-80
2023/01/27 23:09:16;;;;;;;15.73;10.40;;;8.90;73.10;;;;;;6184363;23;20005;-80
2023/01/27 23:11:42;;;;;;;15.80;10.05;;;8.90;73.30;;;;;;6184983;23;20427;-79
2023/01/27 23:14:07;;;;;;;18.48;9.10;;;8.90;73.70;;;;;;6184395;23;20378;-80
2023/01/27 23:16:33;;;;;;;12.40;8.70;;;9.00;73.60;;;;;;6184842;23;20001;-79
2023/01/27 23:18:59;;;;;;;14.32;8.88;;;8.90;73.20;;;;;;6184373;23;19997;-79
2023/01/27 23:21:25;;;;;;;18.67;9.15;;;8.90;73.40;;;;;;6184515;23;20005;-80
2023/01/27 23:23:51;;;;;;;13.43;8.45;;;9.00;73.70;;;;;;6184385;23;20063;-80
2023/01/27 23:26:17;;;;;;;12.13;8.35;;;8.90;72.90;;;;;;6157543;23;20368;-79
2023/01/27 23:28:42;;;;;;;13.80;7.88;;;8.80;73.20;;;;;;6184302;23;20005;-80